CA Drinking Water Watch

CAMP VERDUGO OAKS BOYSCOUTS (1900594)

All Sampling Results From To

WELL 01 (CA1900594_001_001)

Click to hide / show columns: Analyte Number | Analyte Name | Sampling Date | Detected Level | Less Than | RL | Counting Error (+/-) | MCL | DLR | Unit | Lab Sample ID | Lab | ELAP | Method |

Some columns are not shown for clarity. Please use the above links to unhide them.

Tips on Using Table

Analyte Number Analyte Name Sampling Date Results Counting Error (+/-) MCL DLR Unit Lab Sample ID Lab ELAP Method
Detected Level Less Than RL
Analyte Number Analyte Name Sampling Date Detected Level Less Than RL Counting Error (+/-) MCL DLR Unit Lab Sample ID Lab ELAP Method
1040 NITRATE 06-14-2023 1.7 0.4 10 .4 MG/L 380-51040-1 EUROFINS EATON ANALYTICAL (MONROVIA) 2813 EPA 300.0
1041 NITRITE 06-14-2023 < 0.4 1 .4 MG/L 380-51040-1 EUROFINS EATON ANALYTICAL (MONROVIA) 2813 EPA 300.0
1041 NITRITE 04-28-2022 < 0.1 1 .4 MG/L 202204290456 EUROFINS EATON ANALYTICAL (MONROVIA) 2813 EPA 300.0
1040 NITRATE 04-28-2022 2.0 0.1 10 .4 MG/L 202204290456 EUROFINS EATON ANALYTICAL (MONROVIA) 2813 EPA 300.0
1038 NITRATE-NITRITE 04-28-2022 2.0 0.05 10 .4 MG/L 202204290456 EUROFINS EATON ANALYTICAL (MONROVIA) 2813 EPA 300.0
1010 BARIUM 11-11-2002 < 100 1000 100 UG/L 23010010211110840I L.A. CO. AGRICULTURAL COMMISSIONER /W&M 1430
1074 ANTIMONY, TOTAL 11-11-2002 < 6 6 6 UG/L 23010010211110840I L.A. CO. AGRICULTURAL COMMISSIONER /W&M 1430
1045 SELENIUM 11-11-2002 < 5 50 5 UG/L 23010010211110840I L.A. CO. AGRICULTURAL COMMISSIONER /W&M 1430
1025 FLUORIDE 11-11-2002 0.3500000 0.1 1.7 .1 MG/L 23010010211110840I L.A. CO. AGRICULTURAL COMMISSIONER /W&M 1430
1002 ALUMINUM 11-11-2002 < 50 1000 50 UG/L 23010010211110840I L.A. CO. AGRICULTURAL COMMISSIONER /W&M 1430
1036 NICKEL 11-11-2002 < 10 100 10 UG/L 23010010211110840I L.A. CO. AGRICULTURAL COMMISSIONER /W&M 1430
1039 PERCHLORATE 11-11-2002 < 4 4 UG/L 23010010211110840I L.A. CO. AGRICULTURAL COMMISSIONER /W&M 1430
1015 CADMIUM 11-11-2002 < 1 5 1 UG/L 23010010211110840I L.A. CO. AGRICULTURAL COMMISSIONER /W&M 1430
1020 CHROMIUM 11-11-2002 17.1000000 10 50 10 UG/L 23010010211110840I L.A. CO. AGRICULTURAL COMMISSIONER /W&M 1430
1035 MERCURY 11-11-2002 < 1 2 1 UG/L 23010010211110840I L.A. CO. AGRICULTURAL COMMISSIONER /W&M 1430
1005 ARSENIC 11-11-2002 < 2 50 2 UG/L 23010010211110840I L.A. CO. AGRICULTURAL COMMISSIONER /W&M 1430
1032 MANGANESE 11-11-2002 < 20 50 20 UG/L 23010010211110840G L.A. CO. AGRICULTURAL COMMISSIONER /W&M 1430
2905 FOAMING AGENTS (SURFACTANTS) 11-11-2002 < 500 UG/L 23010010211110840G L.A. CO. AGRICULTURAL COMMISSIONER /W&M 1430
1920 ODOR 11-11-2002 < 1 3 1 TON 23010010211110840G L.A. CO. AGRICULTURAL COMMISSIONER /W&M 1430
1050 SILVER 11-11-2002 < 10 100 10 UG/L 23010010211110840G L.A. CO. AGRICULTURAL COMMISSIONER /W&M 1430
1929 ALKALINITY, CARBONATE 11-11-2002 < MG/L 23010010211110840G L.A. CO. AGRICULTURAL COMMISSIONER /W&M 1430
1095 ZINC 11-11-2002 94.7000000 50 5000 50 UG/L 23010010211110840G L.A. CO. AGRICULTURAL COMMISSIONER /W&M 1430
1925 PH 11-11-2002 7.4800000 pH 23010010211110840G L.A. CO. AGRICULTURAL COMMISSIONER /W&M 1430
0100 TURBIDITY 11-11-2002 0.1900000 0.1 5 .1 NTU 23010010211110840G L.A. CO. AGRICULTURAL COMMISSIONER /W&M 1430
1928 ALKALINITY, BICARBONATE 11-11-2002 441.0000000 MG/L 23010010211110840G L.A. CO. AGRICULTURAL COMMISSIONER /W&M 1430
1017 CHLORIDE 11-11-2002 31.0000000 500 MG/L 23010010211110840G L.A. CO. AGRICULTURAL COMMISSIONER /W&M 1430
1930 TDS 11-11-2002 564.0000000 1000 MG/L 23010010211110840G L.A. CO. AGRICULTURAL COMMISSIONER /W&M 1430
1055 SULFATE 11-11-2002 106.0000000 0.5 500 .5 MG/L 23010010211110840G L.A. CO. AGRICULTURAL COMMISSIONER /W&M 1430
1064 CONDUCTIVITY @ 25 C UMHOS/CM 11-11-2002 978.0000000 1600 UMHO/CM 23010010211110840G L.A. CO. AGRICULTURAL COMMISSIONER /W&M 1430
1031 MAGNESIUM 11-11-2002 38.9000000 MG/L 23010010211110840G L.A. CO. AGRICULTURAL COMMISSIONER /W&M 1430
1915 HARDNESS, TOTAL (AS CACO3) 11-11-2002 410.0000000 MG/L 23010010211110840G L.A. CO. AGRICULTURAL COMMISSIONER /W&M 1430
1052 SODIUM 11-11-2002 37.9000000 MG/L 23010010211110840G L.A. CO. AGRICULTURAL COMMISSIONER /W&M 1430
1021 HYDROXIDE AS CALCIUM CARBONATE 11-11-2002 < MG/L 23010010211110840G L.A. CO. AGRICULTURAL COMMISSIONER /W&M 1430
1905 COLOR 11-11-2002 < 15 UNITS 23010010211110840G L.A. CO. AGRICULTURAL COMMISSIONER /W&M 1430
1927 ALKALINITY, TOTAL 11-11-2002 362.0000000 MG/L 23010010211110840G L.A. CO. AGRICULTURAL COMMISSIONER /W&M 1430
1919 CALCIUM 11-11-2002 100.0000000 MG/L 23010010211110840G L.A. CO. AGRICULTURAL COMMISSIONER /W&M 1430
1028 IRON 11-11-2002 < 100 300 100 UG/L 23010010211110840G L.A. CO. AGRICULTURAL COMMISSIONER /W&M 1430
C164 LANGELIER INDEX AT SOURCE TEMP. 11-11-2002 0.5400000 LANG 23010010211110840W L.A. CO. AGRICULTURAL COMMISSIONER /W&M 1430
1030 LEAD 11-11-2002 13.5000000 5 5 UG/L 23010010211110840L L.A. CO. AGRICULTURAL COMMISSIONER /W&M 1430
1022 COPPER, FREE 11-11-2002 53.8000000 50 1000 50 UG/L 23010010211110840L L.A. CO. AGRICULTURAL COMMISSIONER /W&M 1430
2727 THIOBENCARB (BOLERO) 11-11-2002 < 1 70 1 UG/L 23010010211110840S L.A. CO. AGRICULTURAL COMMISSIONER /W&M 1430
1022 COPPER, FREE 12-21-2000 < 50 1000 50 UG/L 23010010012211100L L.A. CO. AGRICULTURAL COMMISSIONER /W&M 1430
1030 LEAD 12-21-2000 < 5 5 UG/L 23010010012211100L L.A. CO. AGRICULTURAL COMMISSIONER /W&M 1430
1002 ALUMINUM 12-21-2000 < 50 1000 50 UG/L 23010010012211100I L.A. CO. AGRICULTURAL COMMISSIONER /W&M 1430
1015 CADMIUM 12-21-2000 < 1 5 1 UG/L 23010010012211100I L.A. CO. AGRICULTURAL COMMISSIONER /W&M 1430
1036 NICKEL 12-21-2000 < 10 100 10 UG/L 23010010012211100I L.A. CO. AGRICULTURAL COMMISSIONER /W&M 1430
1020 CHROMIUM 12-21-2000 < 10 50 10 UG/L 23010010012211100I L.A. CO. AGRICULTURAL COMMISSIONER /W&M 1430
1010 BARIUM 12-21-2000 < 100 1000 100 UG/L 23010010012211100I L.A. CO. AGRICULTURAL COMMISSIONER /W&M 1430
1025 FLUORIDE 12-21-2000 0.4300000 0.1 1.7 .1 MG/L 23010010012211100I L.A. CO. AGRICULTURAL COMMISSIONER /W&M 1430
1035 MERCURY 12-21-2000 < 1 2 1 UG/L 23010010012211100I L.A. CO. AGRICULTURAL COMMISSIONER /W&M 1430
1045 SELENIUM 12-21-2000 < 5 50 5 UG/L 23010010012211100I L.A. CO. AGRICULTURAL COMMISSIONER /W&M 1430
1005 ARSENIC 12-21-2000 < 2 50 2 UG/L 23010010012211100I L.A. CO. AGRICULTURAL COMMISSIONER /W&M 1430
1074 ANTIMONY, TOTAL 12-21-2000 < 6 6 6 UG/L 23010010012211100I L.A. CO. AGRICULTURAL COMMISSIONER /W&M 1430
1032 MANGANESE 12-21-2000 < 20 50 20 UG/L 23010010012211100G L.A. CO. AGRICULTURAL COMMISSIONER /W&M 1430
1927 ALKALINITY, TOTAL 12-21-2000 355.0000000 MG/L 23010010012211100G L.A. CO. AGRICULTURAL COMMISSIONER /W&M 1430
1929 ALKALINITY, CARBONATE 12-21-2000 < MG/L 23010010012211100G L.A. CO. AGRICULTURAL COMMISSIONER /W&M 1430
1930 TDS 12-21-2000 508.0000000 1000 MG/L 23010010012211100G L.A. CO. AGRICULTURAL COMMISSIONER /W&M 1430
1050 SILVER 12-21-2000 < 10 100 10 UG/L 23010010012211100G L.A. CO. AGRICULTURAL COMMISSIONER /W&M 1430
1925 PH 12-21-2000 7.8200000 pH 23010010012211100G L.A. CO. AGRICULTURAL COMMISSIONER /W&M 1430
1928 ALKALINITY, BICARBONATE 12-21-2000 433.0000000 MG/L 23010010012211100G L.A. CO. AGRICULTURAL COMMISSIONER /W&M 1430
1095 ZINC 12-21-2000 < 50 5000 50 UG/L 23010010012211100G L.A. CO. AGRICULTURAL COMMISSIONER /W&M 1430
1031 MAGNESIUM 12-21-2000 43.7000000 MG/L 23010010012211100G L.A. CO. AGRICULTURAL COMMISSIONER /W&M 1430
0100 TURBIDITY 12-21-2000 0.2400000 0.1 5 .1 NTU 23010010012211100G L.A. CO. AGRICULTURAL COMMISSIONER /W&M 1430
1915 HARDNESS, TOTAL (AS CACO3) 12-21-2000 400.0000000 MG/L 23010010012211100G L.A. CO. AGRICULTURAL COMMISSIONER /W&M 1430
1055 SULFATE 12-21-2000 109.0000000 0.5 600 .5 MG/L 23010010012211100G L.A. CO. AGRICULTURAL COMMISSIONER /W&M 1430
1052 SODIUM 12-21-2000 46.0000000 MG/L 23010010012211100G L.A. CO. AGRICULTURAL COMMISSIONER /W&M 1430
1021 HYDROXIDE AS CALCIUM CARBONATE 12-21-2000 < MG/L 23010010012211100G L.A. CO. AGRICULTURAL COMMISSIONER /W&M 1430
1017 CHLORIDE 12-21-2000 25.0000000 500 MG/L 23010010012211100G L.A. CO. AGRICULTURAL COMMISSIONER /W&M 1430
1919 CALCIUM 12-21-2000 88.0000000 MG/L 23010010012211100G L.A. CO. AGRICULTURAL COMMISSIONER /W&M 1430
1028 IRON 12-21-2000 < 100 300 100 UG/L 23010010012211100G L.A. CO. AGRICULTURAL COMMISSIONER /W&M 1430

RL – Reporting Level means the level to which the laboratory reported the presence of an analyte. For radionuclides, Reporting Level is the MDA95.

DLR – Detection Limit for purposes of Reporting (DLR) means the designated minimum level at or above which any analytical finding of a contaminant in drinking water resulting from monitoring required under Chapter 15 of Title 22 shall be reported to the State Board (California Code of Regulations Section § 64400.34)

For addtional definitions, please refer to our data dictionary.